sensor_id;sensor_type;location;lat;lon;timestamp;temperature;humidity
20370;DHT22;10344;47.592;9.600;2023-05-29T00:02:14;15.20;99.90
20370;DHT22;10344;47.592;9.600;2023-05-29T00:04:40;15.10;99.90
20370;DHT22;10344;47.592;9.600;2023-05-29T00:07:08;15.10;99.90
20370;DHT22;10344;47.592;9.600;2023-05-29T00:09:34;15.00;99.90
20370;DHT22;10344;47.592;9.600;2023-05-29T00:12:02;15.00;99.90
20370;DHT22;10344;47.592;9.600;2023-05-29T00:14:34;15.00;99.90
20370;DHT22;10344;47.592;9.600;2023-05-29T00:17:00;15.00;99.90
20370;DHT22;10344;47.592;9.600;2023-05-29T00:19:25;14.90;99.90
20370;DHT22;10344;47.592;9.600;2023-05-29T00:21:51;14.90;99.90
20370;DHT22;10344;47.592;9.600;2023-05-29T00:24:19;14.90;99.90
20370;DHT22;10344;47.592;9.600;2023-05-29T00:26:47;14.90;99.90
20370;DHT22;10344;47.592;9.600;2023-05-29T00:29:15;15.00;99.90
20370;DHT22;10344;47.592;9.600;2023-05-29T00:31:40;15.00;99.90
20370;DHT22;10344;47.592;9.600;2023-05-29T00:34:07;15.10;99.90
20370;DHT22;10344;47.592;9.600;2023-05-29T00:36:34;15.10;99.90
20370;DHT22;10344;47.592;9.600;2023-05-29T00:38:59;15.00;99.90
20370;DHT22;10344;47.592;9.600;2023-05-29T00:41:28;15.00;99.90
20370;DHT22;10344;47.592;9.600;2023-05-29T00:43:55;15.10;99.90
20370;DHT22;10344;47.592;9.600;2023-05-29T00:46:23;15.00;99.90
20370;DHT22;10344;47.592;9.600;2023-05-29T00:48:54;14.90;99.90
20370;DHT22;10344;47.592;9.600;2023-05-29T00:51:24;14.90;99.90
20370;DHT22;10344;47.592;9.600;2023-05-29T00:53:51;14.90;99.90
20370;DHT22;10344;47.592;9.600;2023-05-29T00:56:25;15.00;99.90
20370;DHT22;10344;47.592;9.600;2023-05-29T00:58:52;15.00;99.90
20370;DHT22;10344;47.592;9.600;2023-05-29T01:01:18;15.00;99.90
20370;DHT22;10344;47.592;9.600;2023-05-29T01:03:49;15.00;99.90
20370;DHT22;10344;47.592;9.600;2023-05-29T01:06:17;15.00;99.90
20370;DHT22;10344;47.592;9.600;2023-05-29T01:08:43;14.90;99.90
20370;DHT22;10344;47.592;9.600;2023-05-29T01:11:21;14.80;99.90
20370;DHT22;10344;47.592;9.600;2023-05-29T01:13:58;14.70;99.90
20370;DHT22;10344;47.592;9.600;2023-05-29T01:20:02;14.50;99.90
20370;DHT22;10344;47.592;9.600;2023-05-29T01:28:21;14.40;99.90
20370;DHT22;10344;47.592;9.600;2023-05-29T01:30:54;14.30;99.90
20370;DHT22;10344;47.592;9.600;2023-05-29T01:33:27;14.30;99.90
20370;DHT22;10344;47.592;9.600;2023-05-29T01:35:53;14.20;99.90
20370;DHT22;10344;47.592;9.600;2023-05-29T01:38:19;14.10;99.90
20370;DHT22;10344;47.592;9.600;2023-05-29T01:40:50;14.00;99.90
20370;DHT22;10344;47.592;9.600;2023-05-29T01:43:22;13.90;99.90
20370;DHT22;10344;47.592;9.600;2023-05-29T01:45:50;13.90;99.90
20370;DHT22;10344;47.592;9.600;2023-05-29T01:48:23;13.90;99.90
20370;DHT22;10344;47.592;9.600;2023-05-29T01:50:49;13.80;99.90
20370;DHT22;10344;47.592;9.600;2023-05-29T01:53:15;13.70;99.90
20370;DHT22;10344;47.592;9.600;2023-05-29T01:55:43;13.70;99.90
20370;DHT22;10344;47.592;9.600;2023-05-29T01:58:11;13.60;99.90
20370;DHT22;10344;47.592;9.600;2023-05-29T02:00:38;13.50;99.90
20370;DHT22;10344;47.592;9.600;2023-05-29T02:03:06;13.50;99.90
20370;DHT22;10344;47.592;9.600;2023-05-29T02:05:31;13.40;99.90
20370;DHT22;10344;47.592;9.600;2023-05-29T02:07:57;13.30;99.90
20370;DHT22;10344;47.592;9.600;2023-05-29T02:10:26;13.20;99.90
20370;DHT22;10344;47.592;9.600;2023-05-29T02:12:52;13.20;99.90
20370;DHT22;10344;47.592;9.600;2023-05-29T02:15:20;13.10;99.90
20370;DHT22;10344;47.592;9.600;2023-05-29T02:17:50;13.00;99.90
20370;DHT22;10344;47.592;9.600;2023-05-29T02:20:19;12.90;99.90
20370;DHT22;10344;47.592;9.600;2023-05-29T02:22:45;12.80;99.90
20370;DHT22;10344;47.592;9.600;2023-05-29T02:25:11;12.80;99.90
20370;DHT22;10344;47.592;9.600;2023-05-29T02:27:36;12.80;99.90
20370;DHT22;10344;47.592;9.600;2023-05-29T02:30:13;12.80;99.90
20370;DHT22;10344;47.592;9.600;2023-05-29T02:32:41;12.80;99.90
20370;DHT22;10344;47.592;9.600;2023-05-29T02:35:08;12.80;99.90
20370;DHT22;10344;47.592;9.600;2023-05-29T02:37:33;12.80;99.90
20370;DHT22;10344;47.592;9.600;2023-05-29T02:39:59;12.80;99.90
20370;DHT22;10344;47.592;9.600;2023-05-29T02:42:24;12.80;99.90
20370;DHT22;10344;47.592;9.600;2023-05-29T02:45:11;12.60;99.90
20370;DHT22;10344;47.592;9.600;2023-05-29T02:47:37;12.50;99.90
20370;DHT22;10344;47.592;9.600;2023-05-29T02:50:04;12.40;99.90
20370;DHT22;10344;47.592;9.600;2023-05-29T02:52:32;12.40;99.90
20370;DHT22;10344;47.592;9.600;2023-05-29T02:54:58;12.40;99.90
20370;DHT22;10344;47.592;9.600;2023-05-29T02:57:29;12.50;99.90
20370;DHT22;10344;47.592;9.600;2023-05-29T02:59:59;12.40;99.90
20370;DHT22;10344;47.592;9.600;2023-05-29T03:02:26;12.50;99.90
20370;DHT22;10344;47.592;9.600;2023-05-29T03:04:52;12.50;99.90
20370;DHT22;10344;47.592;9.600;2023-05-29T03:07:19;12.50;99.90
20370;DHT22;10344;47.592;9.600;2023-05-29T03:09:45;12.30;99.90
20370;DHT22;10344;47.592;9.600;2023-05-29T03:12:16;12.30;99.90
20370;DHT22;10344;47.592;9.600;2023-05-29T03:14:46;12.20;99.90
20370;DHT22;10344;47.592;9.600;2023-05-29T03:17:12;12.10;99.90
20370;DHT22;10344;47.592;9.600;2023-05-29T03:19:38;12.10;99.90
20370;DHT22;10344;47.592;9.600;2023-05-29T03:22:04;12.10;99.90
20370;DHT22;10344;47.592;9.600;2023-05-29T03:24:30;12.00;99.90
20370;DHT22;10344;47.592;9.600;2023-05-29T03:27:05;11.90;99.90
20370;DHT22;10344;47.592;9.600;2023-05-29T03:29:31;11.90;99.90
20370;DHT22;10344;47.592;9.600;2023-05-29T03:31:58;11.90;99.90
20370;DHT22;10344;47.592;9.600;2023-05-29T03:34:23;11.90;99.90
20370;DHT22;10344;47.592;9.600;2023-05-29T03:36:49;11.80;99.90
20370;DHT22;10344;47.592;9.600;2023-05-29T03:39:17;11.80;99.90
20370;DHT22;10344;47.592;9.600;2023-05-29T03:41:45;11.90;99.90
20370;DHT22;10344;47.592;9.600;2023-05-29T03:44:10;11.90;99.90
20370;DHT22;10344;47.592;9.600;2023-05-29T03:46:37;11.90;99.90
20370;DHT22;10344;47.592;9.600;2023-05-29T03:49:03;11.90;99.90
20370;DHT22;10344;47.592;9.600;2023-05-29T03:51:28;11.90;99.90
20370;DHT22;10344;47.592;9.600;2023-05-29T03:53:54;11.90;99.90
20370;DHT22;10344;47.592;9.600;2023-05-29T03:56:21;11.80;99.90
20370;DHT22;10344;47.592;9.600;2023-05-29T03:58:49;11.80;99.90
20370;DHT22;10344;47.592;9.600;2023-05-29T04:01:15;11.90;99.90
20370;DHT22;10344;47.592;9.600;2023-05-29T04:03:44;11.90;99.90
20370;DHT22;10344;47.592;9.600;2023-05-29T04:06:12;11.80;99.90
20370;DHT22;10344;47.592;9.600;2023-05-29T04:08:41;11.90;99.90
20370;DHT22;10344;47.592;9.600;2023-05-29T04:11:07;11.90;99.90
20370;DHT22;10344;47.592;9.600;2023-05-29T04:13:32;11.90;99.90
20370;DHT22;10344;47.592;9.600;2023-05-29T04:15:58;11.90;99.90
20370;DHT22;10344;47.592;9.600;2023-05-29T04:18:26;11.80;99.90
20370;DHT22;10344;47.592;9.600;2023-05-29T04:20:59;11.80;99.90
20370;DHT22;10344;47.592;9.600;2023-05-29T04:23:30;11.90;99.90
20370;DHT22;10344;47.592;9.600;2023-05-29T04:25:56;11.90;99.90
20370;DHT22;10344;47.592;9.600;2023-05-29T04:28:26;11.90;99.90
20370;DHT22;10344;47.592;9.600;2023-05-29T04:30:54;11.90;99.90
20370;DHT22;10344;47.592;9.600;2023-05-29T04:33:21;12.00;99.90
20370;DHT22;10344;47.592;9.600;2023-05-29T04:35:49;12.00;99.90
20370;DHT22;10344;47.592;9.600;2023-05-29T04:38:20;12.00;99.90
20370;DHT22;10344;47.592;9.600;2023-05-29T04:40:53;12.00;99.90
20370;DHT22;10344;47.592;9.600;2023-05-29T04:43:29;12.10;99.90
20370;DHT22;10344;47.592;9.600;2023-05-29T04:45:54;12.10;99.90
20370;DHT22;10344;47.592;9.600;2023-05-29T04:48:20;12.00;99.90
20370;DHT22;10344;47.592;9.600;2023-05-29T04:50:46;12.10;99.90
20370;DHT22;10344;47.592;9.600;2023-05-29T04:53:15;12.10;99.90
20370;DHT22;10344;47.592;9.600;2023-05-29T04:55:43;12.10;99.90
20370;DHT22;10344;47.592;9.600;2023-05-29T04:58:13;12.10;99.90
20370;DHT22;10344;47.592;9.600;2023-05-29T05:00:39;12.20;99.90
20370;DHT22;10344;47.592;9.600;2023-05-29T05:03:05;12.20;99.90
20370;DHT22;10344;47.592;9.600;2023-05-29T05:05:33;12.20;99.90
20370;DHT22;10344;47.592;9.600;2023-05-29T05:08:03;12.40;99.90
20370;DHT22;10344;47.592;9.600;2023-05-29T05:10:28;12.40;99.90
20370;DHT22;10344;47.592;9.600;2023-05-29T05:12:57;12.50;99.90
20370;DHT22;10344;47.592;9.600;2023-05-29T05:15:29;12.60;99.90
20370;DHT22;10344;47.592;9.600;2023-05-29T05:17:57;12.70;99.90
20370;DHT22;10344;47.592;9.600;2023-05-29T05:20:23;12.70;99.90
20370;DHT22;10344;47.592;9.600;2023-05-29T05:22:50;12.80;99.90
20370;DHT22;10344;47.592;9.600;2023-05-29T05:25:17;12.90;99.90
20370;DHT22;10344;47.592;9.600;2023-05-29T05:27:42;13.00;99.90
20370;DHT22;10344;47.592;9.600;2023-05-29T05:30:11;13.10;99.90
20370;DHT22;10344;47.592;9.600;2023-05-29T05:32:44;13.20;99.90
20370;DHT22;10344;47.592;9.600;2023-05-29T05:35:10;13.20;99.90
20370;DHT22;10344;47.592;9.600;2023-05-29T05:37:37;13.40;99.90
20370;DHT22;10344;47.592;9.600;2023-05-29T05:40:06;13.40;99.90
20370;DHT22;10344;47.592;9.600;2023-05-29T05:42:34;13.50;99.90
20370;DHT22;10344;47.592;9.600;2023-05-29T05:45:01;13.50;99.90
20370;DHT22;10344;47.592;9.600;2023-05-29T05:47:32;13.60;99.90
20370;DHT22;10344;47.592;9.600;2023-05-29T05:49:59;13.70;99.90
20370;DHT22;10344;47.592;9.600;2023-05-29T05:52:27;13.80;99.90
20370;DHT22;10344;47.592;9.600;2023-05-29T05:54:58;13.90;99.90
20370;DHT22;10344;47.592;9.600;2023-05-29T05:57:27;14.00;99.90
20370;DHT22;10344;47.592;9.600;2023-05-29T05:59:55;14.10;99.90
20370;DHT22;10344;47.592;9.600;2023-05-29T06:02:20;14.20;99.90
20370;DHT22;10344;47.592;9.600;2023-05-29T06:04:49;14.30;99.90
20370;DHT22;10344;47.592;9.600;2023-05-29T06:07:15;14.40;99.90
20370;DHT22;10344;47.592;9.600;2023-05-29T06:09:48;14.60;99.90
20370;DHT22;10344;47.592;9.600;2023-05-29T06:12:16;14.70;99.90
20370;DHT22;10344;47.592;9.600;2023-05-29T06:14:41;14.90;99.90
20370;DHT22;10344;47.592;9.600;2023-05-29T06:17:13;15.10;99.90
20370;DHT22;10344;47.592;9.600;2023-05-29T06:19:41;15.10;99.90
20370;DHT22;10344;47.592;9.600;2023-05-29T06:22:07;15.20;99.90
20370;DHT22;10344;47.592;9.600;2023-05-29T06:24:40;15.40;99.90
20370;DHT22;10344;47.592;9.600;2023-05-29T06:27:06;15.50;99.90
20370;DHT22;10344;47.592;9.600;2023-05-29T06:29:34;15.70;99.90
20370;DHT22;10344;47.592;9.600;2023-05-29T06:32:02;15.80;99.90
20370;DHT22;10344;47.592;9.600;2023-05-29T06:34:32;15.90;99.90
20370;DHT22;10344;47.592;9.600;2023-05-29T06:36:58;16.00;99.90
20370;DHT22;10344;47.592;9.600;2023-05-29T06:39:24;16.20;99.90
20370;DHT22;10344;47.592;9.600;2023-05-29T06:41:51;16.30;99.90
20370;DHT22;10344;47.592;9.600;2023-05-29T06:44:18;16.50;99.90
20370;DHT22;10344;47.592;9.600;2023-05-29T06:46:44;16.80;99.90
20370;DHT22;10344;47.592;9.600;2023-05-29T06:49:09;17.40;99.90
20370;DHT22;10344;47.592;9.600;2023-05-29T06:51:35;18.20;99.90
20370;DHT22;10344;47.592;9.600;2023-05-29T06:54:01;19.20;99.90
20370;DHT22;10344;47.592;9.600;2023-05-29T06:56:31;20.10;99.90
20370;DHT22;10344;47.592;9.600;2023-05-29T06:58:57;20.90;99.90
20370;DHT22;10344;47.592;9.600;2023-05-29T07:01:25;21.40;99.90
20370;DHT22;10344;47.592;9.600;2023-05-29T07:03:58;21.90;99.90
20370;DHT22;10344;47.592;9.600;2023-05-29T07:06:24;22.60;99.90
20370;DHT22;10344;47.592;9.600;2023-05-29T07:08:51;23.20;99.90
20370;DHT22;10344;47.592;9.600;2023-05-29T07:11:17;23.60;99.90
20370;DHT22;10344;47.592;9.600;2023-05-29T07:13:46;23.20;99.90
20370;DHT22;10344;47.592;9.600;2023-05-29T07:16:13;23.20;99.90
20370;DHT22;10344;47.592;9.600;2023-05-29T07:18:42;22.90;99.90
20370;DHT22;10344;47.592;9.600;2023-05-29T07:21:10;22.90;99.90
20370;DHT22;10344;47.592;9.600;2023-05-29T07:23:38;23.10;99.90
20370;DHT22;10344;47.592;9.600;2023-05-29T07:26:04;23.60;99.90
20370;DHT22;10344;47.592;9.600;2023-05-29T07:28:32;23.60;99.90
20370;DHT22;10344;47.592;9.600;2023-05-29T07:31:06;23.50;99.90
20370;DHT22;10344;47.592;9.600;2023-05-29T07:33:39;23.60;99.90
20370;DHT22;10344;47.592;9.600;2023-05-29T07:36:08;23.40;99.90
20370;DHT22;10344;47.592;9.600;2023-05-29T07:38:41;23.80;99.90
20370;DHT22;10344;47.592;9.600;2023-05-29T07:41:10;24.40;99.90
20370;DHT22;10344;47.592;9.600;2023-05-29T07:43:35;25.20;99.90
20370;DHT22;10344;47.592;9.600;2023-05-29T07:46:02;25.20;99.90
20370;DHT22;10344;47.592;9.600;2023-05-29T07:48:30;25.10;99.90
20370;DHT22;10344;47.592;9.600;2023-05-29T07:50:58;24.50;99.90
20370;DHT22;10344;47.592;9.600;2023-05-29T07:53:26;24.10;99.90
20370;DHT22;10344;47.592;9.600;2023-05-29T07:55:58;23.60;99.90
20370;DHT22;10344;47.592;9.600;2023-05-29T07:58:24;23.40;99.90
20370;DHT22;10344;47.592;9.600;2023-05-29T08:00:49;23.30;99.90
20370;DHT22;10344;47.592;9.600;2023-05-29T08:03:15;23.50;99.90
20370;DHT22;10344;47.592;9.600;2023-05-29T08:05:41;23.40;99.90
20370;DHT22;10344;47.592;9.600;2023-05-29T08:08:12;23.50;99.90
20370;DHT22;10344;47.592;9.600;2023-05-29T08:10:47;23.60;99.90
20370;DHT22;10344;47.592;9.600;2023-05-29T08:13:13;23.60;99.90
20370;DHT22;10344;47.592;9.600;2023-05-29T08:15:42;23.60;99.90
20370;DHT22;10344;47.592;9.600;2023-05-29T08:18:07;23.20;99.90
20370;DHT22;10344;47.592;9.600;2023-05-29T08:20:33;22.90;99.90
20370;DHT22;10344;47.592;9.600;2023-05-29T08:23:00;22.80;99.90
20370;DHT22;10344;47.592;9.600;2023-05-29T08:25:27;22.90;99.90
20370;DHT22;10344;47.592;9.600;2023-05-29T08:27:55;23.10;99.90
20370;DHT22;10344;47.592;9.600;2023-05-29T08:30:23;23.40;99.90
20370;DHT22;10344;47.592;9.600;2023-05-29T08:32:49;23.40;99.90
20370;DHT22;10344;47.592;9.600;2023-05-29T08:35:15;23.20;99.90
20370;DHT22;10344;47.592;9.600;2023-05-29T08:37:41;23.70;99.90
20370;DHT22;10344;47.592;9.600;2023-05-29T08:40:10;23.90;99.90
20370;DHT22;10344;47.592;9.600;2023-05-29T08:42:36;23.60;99.90
20370;DHT22;10344;47.592;9.600;2023-05-29T08:45:04;23.30;99.90
20370;DHT22;10344;47.592;9.600;2023-05-29T08:47:36;23.50;99.90
20370;DHT22;10344;47.592;9.600;2023-05-29T08:50:04;23.90;99.90
20370;DHT22;10344;47.592;9.600;2023-05-29T08:52:34;23.60;99.90
20370;DHT22;10344;47.592;9.600;2023-05-29T08:55:06;23.50;99.90
20370;DHT22;10344;47.592;9.600;2023-05-29T08:57:39;23.40;99.90
20370;DHT22;10344;47.592;9.600;2023-05-29T09:00:11;23.80;99.90
20370;DHT22;10344;47.592;9.600;2023-05-29T09:02:45;23.60;99.90
20370;DHT22;10344;47.592;9.600;2023-05-29T09:05:21;23.10;99.90
20370;DHT22;10344;47.592;9.600;2023-05-29T09:07:47;23.40;99.90
20370;DHT22;10344;47.592;9.600;2023-05-29T09:10:17;23.90;99.90
20370;DHT22;10344;47.592;9.600;2023-05-29T09:12:46;24.20;99.90
20370;DHT22;10344;47.592;9.600;2023-05-29T09:15:20;23.90;99.90
20370;DHT22;10344;47.592;9.600;2023-05-29T09:17:54;23.40;99.90
20370;DHT22;10344;47.592;9.600;2023-05-29T09:20:26;23.30;99.90
20370;DHT22;10344;47.592;9.600;2023-05-29T09:23:13;23.30;99.90
20370;DHT22;10344;47.592;9.600;2023-05-29T09:25:42;23.20;99.90
20370;DHT22;10344;47.592;9.600;2023-05-29T09:28:09;23.40;99.90
20370;DHT22;10344;47.592;9.600;2023-05-29T09:33:09;23.20;99.90
20370;DHT22;10344;47.592;9.600;2023-05-29T09:35:41;23.20;99.90
20370;DHT22;10344;47.592;9.600;2023-05-29T09:38:11;23.40;99.90
20370;DHT22;10344;47.592;9.600;2023-05-29T09:40:41;23.60;99.90
20370;DHT22;10344;47.592;9.600;2023-05-29T09:43:11;24.00;99.90
20370;DHT22;10344;47.592;9.600;2023-05-29T09:45:37;24.80;99.90
20370;DHT22;10344;47.592;9.600;2023-05-29T09:48:04;24.80;99.90
20370;DHT22;10344;47.592;9.600;2023-05-29T09:50:41;24.50;99.90
20370;DHT22;10344;47.592;9.600;2023-05-29T09:53:20;24.10;99.90
20370;DHT22;10344;47.592;9.600;2023-05-29T09:55:46;24.70;99.90
20370;DHT22;10344;47.592;9.600;2023-05-29T09:58:13;25.70;99.90
20370;DHT22;10344;47.592;9.600;2023-05-29T10:00:40;26.40;99.90
20370;DHT22;10344;47.592;9.600;2023-05-29T10:03:06;26.60;99.90
20370;DHT22;10344;47.592;9.600;2023-05-29T10:05:34;26.90;99.90
20370;DHT22;10344;47.592;9.600;2023-05-29T10:11:01;26.40;99.90
20370;DHT22;10344;47.592;9.600;2023-05-29T10:13:34;25.70;99.90
20370;DHT22;10344;47.592;9.600;2023-05-29T10:16:03;25.40;99.90
20370;DHT22;10344;47.592;9.600;2023-05-29T10:18:38;25.50;99.90
20370;DHT22;10344;47.592;9.600;2023-05-29T10:21:07;26.00;99.90
20370;DHT22;10344;47.592;9.600;2023-05-29T10:23:32;26.40;99.90
20370;DHT22;10344;47.592;9.600;2023-05-29T10:26:19;26.60;99.90
20370;DHT22;10344;47.592;9.600;2023-05-29T10:28:54;26.40;99.90
20370;DHT22;10344;47.592;9.600;2023-05-29T10:31:22;26.50;99.90
20370;DHT22;10344;47.592;9.600;2023-05-29T10:36:20;28.10;99.90
20370;DHT22;10344;47.592;9.600;2023-05-29T10:38:57;28.80;99.90
20370;DHT22;10344;47.592;9.600;2023-05-29T10:43:58;30.00;97.50
20370;DHT22;10344;47.592;9.600;2023-05-29T10:49:15;29.80;96.80
20370;DHT22;10344;47.592;9.600;2023-05-29T10:51:41;30.00;96.20
20370;DHT22;10344;47.592;9.600;2023-05-29T10:54:07;30.20;96.00
20370;DHT22;10344;47.592;9.600;2023-05-29T10:56:35;30.30;94.30
20370;DHT22;10344;47.592;9.600;2023-05-29T10:59:06;30.70;93.90
20370;DHT22;10344;47.592;9.600;2023-05-29T11:01:39;30.70;92.00
20370;DHT22;10344;47.592;9.600;2023-05-29T11:06:45;30.70;92.00
20370;DHT22;10344;47.592;9.600;2023-05-29T11:09:28;30.50;91.20
20370;DHT22;10344;47.592;9.600;2023-05-29T11:20:05;30.10;91.30
20370;DHT22;10344;47.592;9.600;2023-05-29T11:25:18;30.30;89.40
20370;DHT22;10344;47.592;9.600;2023-05-29T11:27:44;30.30;91.60
20370;DHT22;10344;47.592;9.600;2023-05-29T11:30:13;30.50;91.10
20370;DHT22;10344;47.592;9.600;2023-05-29T11:32:43;30.70;90.00
20370;DHT22;10344;47.592;9.600;2023-05-29T11:35:10;30.60;89.50
20370;DHT22;10344;47.592;9.600;2023-05-29T11:37:36;30.40;90.00
20370;DHT22;10344;47.592;9.600;2023-05-29T11:40:06;30.30;91.10
20370;DHT22;10344;47.592;9.600;2023-05-29T11:42:34;30.50;91.00
20370;DHT22;10344;47.592;9.600;2023-05-29T11:50:19;30.90;90.50
20370;DHT22;10344;47.592;9.600;2023-05-29T11:52:45;31.10;91.40
20370;DHT22;10344;47.592;9.600;2023-05-29T11:55:11;31.20;86.90
20370;DHT22;10344;47.592;9.600;2023-05-29T11:57:39;31.30;90.40
20370;DHT22;10344;47.592;9.600;2023-05-29T12:00:05;31.30;89.50
20370;DHT22;10344;47.592;9.600;2023-05-29T12:02:39;31.30;86.90
20370;DHT22;10344;47.592;9.600;2023-05-29T12:05:05;31.20;85.20
20370;DHT22;10344;47.592;9.600;2023-05-29T12:07:52;31.00;86.40
20370;DHT22;10344;47.592;9.600;2023-05-29T12:10:18;31.00;85.90
20370;DHT22;10344;47.592;9.600;2023-05-29T12:12:48;31.30;84.80
20370;DHT22;10344;47.592;9.600;2023-05-29T12:15:16;31.30;88.30
20370;DHT22;10344;47.592;9.600;2023-05-29T12:17:43;31.50;85.10
20370;DHT22;10344;47.592;9.600;2023-05-29T12:20:17;31.30;84.50
20370;DHT22;10344;47.592;9.600;2023-05-29T12:22:44;31.10;85.40
20370;DHT22;10344;47.592;9.600;2023-05-29T12:27:41;30.70;84.70
20370;DHT22;10344;47.592;9.600;2023-05-29T12:30:08;30.50;83.60
20370;DHT22;10344;47.592;9.600;2023-05-29T12:32:47;30.50;85.10
20370;DHT22;10344;47.592;9.600;2023-05-29T12:35:13;30.60;86.60
20370;DHT22;10344;47.592;9.600;2023-05-29T12:37:46;30.60;85.70
20370;DHT22;10344;47.592;9.600;2023-05-29T12:40:19;30.50;83.20
20370;DHT22;10344;47.592;9.600;2023-05-29T12:42:54;30.30;81.80
20370;DHT22;10344;47.592;9.600;2023-05-29T12:45:21;30.10;85.20
20370;DHT22;10344;47.592;9.600;2023-05-29T12:47:55;30.30;83.70
20370;DHT22;10344;47.592;9.600;2023-05-29T12:50:25;30.40;84.30
20370;DHT22;10344;47.592;9.600;2023-05-29T12:52:58;30.50;84.90
20370;DHT22;10344;47.592;9.600;2023-05-29T12:55:29;30.50;83.20
20370;DHT22;10344;47.592;9.600;2023-05-29T12:57:55;30.50;84.40
20370;DHT22;10344;47.592;9.600;2023-05-29T13:00:22;30.50;85.30
20370;DHT22;10344;47.592;9.600;2023-05-29T13:02:48;30.70;83.30
20370;DHT22;10344;47.592;9.600;2023-05-29T13:05:17;30.90;81.50
20370;DHT22;10344;47.592;9.600;2023-05-29T13:07:47;30.50;81.20
20370;DHT22;10344;47.592;9.600;2023-05-29T13:10:20;30.40;81.30
20370;DHT22;10344;47.592;9.600;2023-05-29T13:12:53;30.40;82.10
20370;DHT22;10344;47.592;9.600;2023-05-29T13:15:21;30.50;80.40
20370;DHT22;10344;47.592;9.600;2023-05-29T13:17:49;30.50;83.70
20370;DHT22;10344;47.592;9.600;2023-05-29T13:20:23;30.50;78.80
20370;DHT22;10344;47.592;9.600;2023-05-29T13:22:57;30.50;82.00
20370;DHT22;10344;47.592;9.600;2023-05-29T13:25:22;30.60;79.60
20370;DHT22;10344;47.592;9.600;2023-05-29T13:27:49;30.60;83.80
20370;DHT22;10344;47.592;9.600;2023-05-29T13:30:17;30.60;81.10
20370;DHT22;10344;47.592;9.600;2023-05-29T13:32:43;30.50;81.40
20370;DHT22;10344;47.592;9.600;2023-05-29T13:35:09;30.50;79.60
20370;DHT22;10344;47.592;9.600;2023-05-29T13:37:37;30.50;80.60
20370;DHT22;10344;47.592;9.600;2023-05-29T13:40:09;30.50;78.50
20370;DHT22;10344;47.592;9.600;2023-05-29T13:42:38;30.40;78.20
20370;DHT22;10344;47.592;9.600;2023-05-29T13:45:04;30.40;79.40
20370;DHT22;10344;47.592;9.600;2023-05-29T13:47:31;30.30;80.00
20370;DHT22;10344;47.592;9.600;2023-05-29T13:49:59;30.40;79.30
20370;DHT22;10344;47.592;9.600;2023-05-29T13:52:25;30.60;81.00
20370;DHT22;10344;47.592;9.600;2023-05-29T13:54:51;30.60;81.20
20370;DHT22;10344;47.592;9.600;2023-05-29T13:57:19;30.60;79.40
20370;DHT22;10344;47.592;9.600;2023-05-29T13:59:44;30.50;79.40
20370;DHT22;10344;47.592;9.600;2023-05-29T14:02:12;30.40;79.70
20370;DHT22;10344;47.592;9.600;2023-05-29T14:04:38;30.30;78.40
20370;DHT22;10344;47.592;9.600;2023-05-29T14:07:05;30.30;79.30
20370;DHT22;10344;47.592;9.600;2023-05-29T14:09:31;30.20;78.60
20370;DHT22;10344;47.592;9.600;2023-05-29T14:11:59;30.00;79.70
20370;DHT22;10344;47.592;9.600;2023-05-29T14:14:28;30.20;78.10
20370;DHT22;10344;47.592;9.600;2023-05-29T14:16:53;30.10;79.40
20370;DHT22;10344;47.592;9.600;2023-05-29T14:19:20;30.20;79.60
20370;DHT22;10344;47.592;9.600;2023-05-29T14:21:47;30.10;77.10
20370;DHT22;10344;47.592;9.600;2023-05-29T14:24:18;30.00;79.50
20370;DHT22;10344;47.592;9.600;2023-05-29T14:26:46;30.20;78.10
20370;DHT22;10344;47.592;9.600;2023-05-29T14:29:14;30.20;77.10
20370;DHT22;10344;47.592;9.600;2023-05-29T14:31:42;30.20;77.80
20370;DHT22;10344;47.592;9.600;2023-05-29T14:34:11;30.30;76.40
20370;DHT22;10344;47.592;9.600;2023-05-29T14:36:37;30.30;77.60
20370;DHT22;10344;47.592;9.600;2023-05-29T14:39:03;30.30;77.40
20370;DHT22;10344;47.592;9.600;2023-05-29T14:41:28;30.40;75.90
20370;DHT22;10344;47.592;9.600;2023-05-29T14:43:57;30.40;77.10
20370;DHT22;10344;47.592;9.600;2023-05-29T14:46:26;30.30;76.20
20370;DHT22;10344;47.592;9.600;2023-05-29T14:48:53;30.20;75.00
20370;DHT22;10344;47.592;9.600;2023-05-29T14:51:21;30.00;79.00
20370;DHT22;10344;47.592;9.600;2023-05-29T14:53:49;30.00;78.40
20370;DHT22;10344;47.592;9.600;2023-05-29T14:56:15;30.00;76.40
20370;DHT22;10344;47.592;9.600;2023-05-29T14:58:44;29.90;74.60
20370;DHT22;10344;47.592;9.600;2023-05-29T15:01:10;29.70;73.10
20370;DHT22;10344;47.592;9.600;2023-05-29T15:03:38;29.50;72.50
20370;DHT22;10344;47.592;9.600;2023-05-29T15:06:06;29.40;75.00
20370;DHT22;10344;47.592;9.600;2023-05-29T15:08:32;29.40;73.70
20370;DHT22;10344;47.592;9.600;2023-05-29T15:11:02;29.20;76.20
20370;DHT22;10344;47.592;9.600;2023-05-29T15:13:30;29.10;75.20
20370;DHT22;10344;47.592;9.600;2023-05-29T15:15:59;29.10;77.10
20370;DHT22;10344;47.592;9.600;2023-05-29T15:18:29;29.10;74.20
20370;DHT22;10344;47.592;9.600;2023-05-29T15:20:56;29.00;75.80
20370;DHT22;10344;47.592;9.600;2023-05-29T15:23:24;29.00;75.40
20370;DHT22;10344;47.592;9.600;2023-05-29T15:25:51;29.00;75.30
20370;DHT22;10344;47.592;9.600;2023-05-29T15:28:19;29.00;72.30
20370;DHT22;10344;47.592;9.600;2023-05-29T15:30:45;28.90;74.40
20370;DHT22;10344;47.592;9.600;2023-05-29T15:33:10;28.50;73.90
20370;DHT22;10344;47.592;9.600;2023-05-29T15:35:39;28.40;76.20
20370;DHT22;10344;47.592;9.600;2023-05-29T15:38:16;28.40;75.50
20370;DHT22;10344;47.592;9.600;2023-05-29T15:40:46;28.40;74.20
20370;DHT22;10344;47.592;9.600;2023-05-29T15:43:11;28.30;74.90
20370;DHT22;10344;47.592;9.600;2023-05-29T15:45:37;28.30;73.30
20370;DHT22;10344;47.592;9.600;2023-05-29T15:48:03;28.20;73.40
20370;DHT22;10344;47.592;9.600;2023-05-29T15:50:28;28.10;72.70
20370;DHT22;10344;47.592;9.600;2023-05-29T15:52:54;28.00;75.10
20370;DHT22;10344;47.592;9.600;2023-05-29T15:55:19;28.00;76.00
20370;DHT22;10344;47.592;9.600;2023-05-29T15:57:46;28.10;75.90
20370;DHT22;10344;47.592;9.600;2023-05-29T16:00:13;28.20;75.80
20370;DHT22;10344;47.592;9.600;2023-05-29T16:02:39;28.10;73.50
20370;DHT22;10344;47.592;9.600;2023-05-29T16:05:05;28.00;72.70
20370;DHT22;10344;47.592;9.600;2023-05-29T16:07:30;28.10;73.20
20370;DHT22;10344;47.592;9.600;2023-05-29T16:09:56;27.90;76.60
20370;DHT22;10344;47.592;9.600;2023-05-29T16:12:25;27.80;73.40
20370;DHT22;10344;47.592;9.600;2023-05-29T16:14:50;27.60;74.50
20370;DHT22;10344;47.592;9.600;2023-05-29T16:17:16;27.60;75.40
20370;DHT22;10344;47.592;9.600;2023-05-29T16:19:44;27.40;72.80
20370;DHT22;10344;47.592;9.600;2023-05-29T16:22:12;27.30;74.90